sensor_id;sensor_type;location;lat;lon;timestamp;pressure;altitude;pressure_sealevel;temperature;humidity
21111;BME280;10713;51.912;4.494;2023-05-03T00:00:06;102932.44;;;9.09;100.00
21111;BME280;10713;51.912;4.494;2023-05-03T00:02:33;102942.09;;;9.30;100.00
21111;BME280;10713;51.912;4.494;2023-05-03T00:04:59;102937.69;;;9.45;100.00
21111;BME280;10713;51.912;4.494;2023-05-03T00:07:25;102930.66;;;9.40;100.00
21111;BME280;10713;51.912;4.494;2023-05-03T00:09:50;102936.81;;;9.14;100.00
21111;BME280;10713;51.912;4.494;2023-05-03T00:12:16;102929.78;;;9.04;100.00
21111;BME280;10713;51.912;4.494;2023-05-03T00:14:41;102935.94;;;8.92;100.00
21111;BME280;10713;51.912;4.494;2023-05-03T00:17:07;102943.84;;;9.00;100.00
21111;BME280;10713;51.912;4.494;2023-05-03T00:19:32;102943.88;;;9.21;100.00
21111;BME280;10713;51.912;4.494;2023-05-03T00:21:59;102931.56;;;9.39;100.00
21111;BME280;10713;51.912;4.494;2023-05-03T00:24:24;102939.44;;;9.57;100.00
21111;BME280;10713;51.912;4.494;2023-05-03T00:26:50;102936.75;;;9.69;100.00
21111;BME280;10713;51.912;4.494;2023-05-03T00:29:15;102923.56;;;9.69;100.00
21111;BME280;10713;51.912;4.494;2023-05-03T00:31:42;102923.63;;;9.43;100.00
21111;BME280;10713;51.912;4.494;2023-05-03T00:34:08;102923.66;;;8.93;100.00
21111;BME280;10713;51.912;4.494;2023-05-03T00:36:33;102927.16;;;8.89;100.00
21111;BME280;10713;51.912;4.494;2023-05-03T00:38:59;102928.06;;;9.11;100.00
21111;BME280;10713;51.912;4.494;2023-05-03T00:41:25;102929.78;;;9.32;100.00
21111;BME280;10713;51.912;4.494;2023-05-03T00:43:51;102925.41;;;9.24;100.00
21111;BME280;10713;51.912;4.494;2023-05-03T00:46:16;102933.31;;;9.14;100.00
21111;BME280;10713;51.912;4.494;2023-05-03T00:48:42;102922.78;;;9.08;100.00
21111;BME280;10713;51.912;4.494;2023-05-03T00:51:09;102931.50;;;8.61;100.00
21111;BME280;10713;51.912;4.494;2023-05-03T00:53:37;102938.47;;;8.39;100.00
21111;BME280;10713;51.912;4.494;2023-05-03T00:56:02;102942.00;;;8.57;100.00
21111;BME280;10713;51.912;4.494;2023-05-03T00:58:30;102929.72;;;8.47;100.00
21111;BME280;10713;51.912;4.494;2023-05-03T01:00:57;102935.84;;;8.39;100.00
21111;BME280;10713;51.912;4.494;2023-05-03T01:03:23;102937.66;;;8.63;100.00
21111;BME280;10713;51.912;4.494;2023-05-03T01:08:58;102947.31;;;8.80;100.00
21111;BME280;10713;51.912;4.494;2023-05-03T01:11:51;102942.06;;;8.77;100.00
21111;BME280;10713;51.912;4.494;2023-05-03T01:14:31;102938.50;;;8.54;100.00
21111;BME280;10713;51.912;4.494;2023-05-03T01:17:05;102934.09;;;8.45;100.00
21111;BME280;10713;51.912;4.494;2023-05-03T01:19:35;102939.38;;;8.48;100.00
21111;BME280;10713;51.912;4.494;2023-05-03T01:22:13;102935.84;;;8.45;100.00
21111;BME280;10713;51.912;4.494;2023-05-03T01:24:40;102932.31;;;8.40;100.00
21111;BME280;10713;51.912;4.494;2023-05-03T01:27:06;102937.63;;;8.50;100.00
21111;BME280;10713;51.912;4.494;2023-05-03T01:29:33;102935.91;;;8.65;100.00
21111;BME280;10713;51.912;4.494;2023-05-03T01:32:00;102928.00;;;8.59;100.00
21111;BME280;10713;51.912;4.494;2023-05-03T01:34:50;102934.16;;;8.76;100.00
21111;BME280;10713;51.912;4.494;2023-05-03T01:37:19;102927.16;;;8.92;100.00
21111;BME280;10713;51.912;4.494;2023-05-03T01:40:14;102929.81;;;8.90;100.00
21111;BME280;10713;51.912;4.494;2023-05-03T01:42:44;102919.22;;;8.78;100.00
21111;BME280;10713;51.912;4.494;2023-05-03T01:45:10;102923.59;;;8.70;100.00
21111;BME280;10713;51.912;4.494;2023-05-03T01:47:36;102912.19;;;8.60;100.00
21111;BME280;10713;51.912;4.494;2023-05-03T01:50:01;102916.38;;;8.01;100.00
21111;BME280;10713;51.912;4.494;2023-05-03T01:52:26;102909.97;;;7.53;100.00
21111;BME280;10713;51.912;4.494;2023-05-03T01:54:52;102907.03;;;7.15;100.00
21111;BME280;10713;51.912;4.494;2023-05-03T01:57:17;102896.31;;;6.89;100.00
21111;BME280;10713;51.912;4.494;2023-05-03T01:59:43;102897.91;;;6.70;100.00
21111;BME280;10713;51.912;4.494;2023-05-03T02:02:08;102900.38;;;6.53;100.00
21111;BME280;10713;51.912;4.494;2023-05-03T02:04:34;102879.22;;;6.41;100.00
21111;BME280;10713;51.912;4.494;2023-05-03T02:06:59;102873.06;;;6.32;100.00
21111;BME280;10713;51.912;4.494;2023-05-03T02:09:24;102872.97;;;6.25;100.00
21111;BME280;10713;51.912;4.494;2023-05-03T02:11:50;102867.63;;;6.16;100.00
21111;BME280;10713;51.912;4.494;2023-05-03T02:14:15;102873.66;;;6.12;100.00
21111;BME280;10713;51.912;4.494;2023-05-03T02:16:40;102874.50;;;6.07;100.00
21111;BME280;10713;51.912;4.494;2023-05-03T02:19:06;102886.75;;;6.08;100.00
21111;BME280;10713;51.912;4.494;2023-05-03T02:21:33;102893.72;;;6.08;100.00
21111;BME280;10713;51.912;4.494;2023-05-03T02:23:58;102892.88;;;6.09;100.00
21111;BME280;10713;51.912;4.494;2023-05-03T02:26:24;102901.63;;;6.09;100.00
21111;BME280;10713;51.912;4.494;2023-05-03T02:28:50;102901.53;;;6.03;100.00
21111;BME280;10713;51.912;4.494;2023-05-03T02:31:15;102902.50;;;6.10;100.00
21111;BME280;10713;51.912;4.494;2023-05-03T02:33:40;102898.09;;;6.09;100.00
21111;BME280;10713;51.912;4.494;2023-05-03T02:36:06;102912.06;;;6.05;100.00
21111;BME280;10713;51.912;4.494;2023-05-03T02:38:32;102922.53;;;6.05;100.00
21111;BME280;10713;51.912;4.494;2023-05-03T02:40:57;102928.81;;;6.16;100.00
21111;BME280;10713;51.912;4.494;2023-05-03T02:43:23;102924.53;;;6.26;100.00
21111;BME280;10713;51.912;4.494;2023-05-03T02:45:49;102907.84;;;6.21;100.00
21111;BME280;10713;51.912;4.494;2023-05-03T02:48:14;102911.44;;;6.24;100.00
21111;BME280;10713;51.912;4.494;2023-05-03T02:50:41;102923.56;;;6.16;100.00
21111;BME280;10713;51.912;4.494;2023-05-03T02:53:06;102925.31;;;6.16;100.00
21111;BME280;10713;51.912;4.494;2023-05-03T02:55:33;102920.91;;;6.13;100.00
21111;BME280;10713;51.912;4.494;2023-05-03T02:57:58;102911.19;;;6.06;100.00
21111;BME280;10713;51.912;4.494;2023-05-03T03:00:23;102910.28;;;6.02;100.00
21111;BME280;10713;51.912;4.494;2023-05-03T03:02:49;102918.94;;;5.97;100.00
21111;BME280;10713;51.912;4.494;2023-05-03T03:05:15;102921.41;;;5.89;100.00
21111;BME280;10713;51.912;4.494;2023-05-03T03:07:40;102917.88;;;5.84;100.00
21111;BME280;10713;51.912;4.494;2023-05-03T03:10:06;102921.28;;;5.78;100.00
21111;BME280;10713;51.912;4.494;2023-05-03T03:12:34;102923.78;;;5.72;100.00
21111;BME280;10713;51.912;4.494;2023-05-03T03:14:59;102937.81;;;5.74;100.00
21111;BME280;10713;51.912;4.494;2023-05-03T03:17:25;102937.09;;;5.86;100.00
21111;BME280;10713;51.912;4.494;2023-05-03T03:19:50;102930.19;;;5.90;100.00
21111;BME280;10713;51.912;4.494;2023-05-03T03:22:16;102934.53;;;5.89;100.00
21111;BME280;10713;51.912;4.494;2023-05-03T03:24:41;102938.03;;;5.90;100.00
21111;BME280;10713;51.912;4.494;2023-05-03T03:27:07;102941.13;;;6.22;100.00
21111;BME280;10713;51.912;4.494;2023-05-03T03:29:33;102937.09;;;6.54;100.00
21111;BME280;10713;51.912;4.494;2023-05-03T03:31:59;102931.84;;;6.53;100.00
21111;BME280;10713;51.912;4.494;2023-05-03T03:34:24;102928.09;;;6.31;100.00
21111;BME280;10713;51.912;4.494;2023-05-03T03:36:50;102927.94;;;6.16;100.00
21111;BME280;10713;51.912;4.494;2023-05-03T03:39:15;102931.22;;;5.99;100.00
21111;BME280;10713;51.912;4.494;2023-05-03T03:41:41;102926.66;;;5.89;100.00
21111;BME280;10713;51.912;4.494;2023-05-03T03:44:06;102932.69;;;5.82;100.00
21111;BME280;10713;51.912;4.494;2023-05-03T03:46:31;102931.78;;;5.78;100.00
21111;BME280;10713;51.912;4.494;2023-05-03T03:48:57;102952.09;;;5.93;100.00
21111;BME280;10713;51.912;4.494;2023-05-03T03:51:22;102938.03;;;5.90;100.00
21111;BME280;10713;51.912;4.494;2023-05-03T03:53:48;102949.72;;;6.12;100.00
21111;BME280;10713;51.912;4.494;2023-05-03T03:56:13;102958.91;;;6.49;100.00
21111;BME280;10713;51.912;4.494;2023-05-03T03:58:38;102956.69;;;6.86;100.00
21111;BME280;10713;51.912;4.494;2023-05-03T04:01:04;102951.69;;;7.10;100.00
21111;BME280;10713;51.912;4.494;2023-05-03T04:03:30;102962.50;;;7.47;100.00
21111;BME280;10713;51.912;4.494;2023-05-03T04:05:55;102961.84;;;7.82;100.00
21111;BME280;10713;51.912;4.494;2023-05-03T04:08:21;102953.19;;;8.01;100.00
21111;BME280;10713;51.912;4.494;2023-05-03T04:10:46;102954.13;;;8.16;100.00
21111;BME280;10713;51.912;4.494;2023-05-03T04:13:11;102951.53;;;8.22;100.00
21111;BME280;10713;51.912;4.494;2023-05-03T04:15:37;102962.16;;;8.39;100.00
21111;BME280;10713;51.912;4.494;2023-05-03T04:18:02;102953.31;;;8.33;100.00
21111;BME280;10713;51.912;4.494;2023-05-03T04:20:28;102954.13;;;8.17;100.00
21111;BME280;10713;51.912;4.494;2023-05-03T04:22:53;102949.66;;;8.04;100.00
21111;BME280;10713;51.912;4.494;2023-05-03T04:25:19;102946.97;;;7.87;100.00
21111;BME280;10713;51.912;4.494;2023-05-03T04:27:45;102951.41;;;7.97;100.00
21111;BME280;10713;51.912;4.494;2023-05-03T04:30:11;102945.28;;;8.01;100.00
21111;BME280;10713;51.912;4.494;2023-05-03T04:32:40;102939.94;;;7.84;100.00
21111;BME280;10713;51.912;4.494;2023-05-03T04:35:07;102948.56;;;7.66;100.00
21111;BME280;10713;51.912;4.494;2023-05-03T04:37:38;102941.72;;;7.88;100.00
21111;BME280;10713;51.912;4.494;2023-05-03T04:40:05;102943.63;;;8.22;100.00
21111;BME280;10713;51.912;4.494;2023-05-03T04:42:36;102938.47;;;8.46;100.00
21111;BME280;10713;51.912;4.494;2023-05-03T04:45:01;102939.38;;;8.61;100.00
21111;BME280;10713;51.912;4.494;2023-05-03T04:47:28;102932.41;;;8.79;100.00
21111;BME280;10713;51.912;4.494;2023-05-03T04:49:54;102934.16;;;8.90;100.00
21111;BME280;10713;51.912;4.494;2023-05-03T04:52:19;102931.56;;;9.16;100.00
21111;BME280;10713;51.912;4.494;2023-05-03T04:54:44;102933.31;;;9.37;100.00
21111;BME280;10713;51.912;4.494;2023-05-03T04:57:10;102930.69;;;9.14;100.00
21111;BME280;10713;51.912;4.494;2023-05-03T04:59:35;102931.53;;;9.03;100.00
21111;BME280;10713;51.912;4.494;2023-05-03T05:02:01;102934.19;;;9.25;100.00
21111;BME280;10713;51.912;4.494;2023-05-03T05:04:26;102921.00;;;9.40;100.00
21111;BME280;10713;51.912;4.494;2023-05-03T05:06:52;102929.78;;;9.45;100.00
21111;BME280;10713;51.912;4.494;2023-05-03T05:09:22;102935.84;;;9.90;100.00
21111;BME280;10713;51.912;4.494;2023-05-03T05:11:49;102931.31;;;10.23;100.00
21111;BME280;10713;51.912;4.494;2023-05-03T05:14:14;102926.16;;;9.97;100.00
21111;BME280;10713;51.912;4.494;2023-05-03T05:16:40;102936.72;;;9.86;100.00
21111;BME280;10713;51.912;4.494;2023-05-03T05:19:05;102934.09;;;9.86;100.00
21111;BME280;10713;51.912;4.494;2023-05-03T05:21:31;102934.59;;;10.74;100.00
21111;BME280;10713;51.912;4.494;2023-05-03T05:23:56;102938.38;;;11.49;100.00
21111;BME280;10713;51.912;4.494;2023-05-03T05:26:22;102925.66;;;11.88;100.00
21111;BME280;10713;51.912;4.494;2023-05-03T05:28:47;102935.97;;;12.11;100.00
21111;BME280;10713;51.912;4.494;2023-05-03T05:31:12;102926.13;;;12.22;100.00
21111;BME280;10713;51.912;4.494;2023-05-03T05:33:38;102929.19;;;12.56;100.00
21111;BME280;10713;51.912;4.494;2023-05-03T05:36:04;102943.09;;;12.72;100.00
21111;BME280;10713;51.912;4.494;2023-05-03T05:38:30;102933.75;;;13.05;100.00
21111;BME280;10713;51.912;4.494;2023-05-03T05:40:56;102933.28;;;13.33;100.00
21111;BME280;10713;51.912;4.494;2023-05-03T05:43:21;102923.91;;;13.62;100.00
21111;BME280;10713;51.912;4.494;2023-05-03T05:45:47;102933.50;;;13.70;100.00
21111;BME280;10713;51.912;4.494;2023-05-03T05:48:13;102930.88;;;13.69;100.00
21111;BME280;10713;51.912;4.494;2023-05-03T05:50:38;102935.81;;;13.87;100.00
21111;BME280;10713;51.912;4.494;2023-05-03T05:53:03;102926.84;;;13.94;100.00
21111;BME280;10713;51.912;4.494;2023-05-03T05:55:29;102925.34;;;14.23;98.74
21111;BME280;10713;51.912;4.494;2023-05-03T05:57:54;102924.06;;;14.42;91.10
21111;BME280;10713;51.912;4.494;2023-05-03T06:00:20;102924.75;;;14.52;85.64
21111;BME280;10713;51.912;4.494;2023-05-03T06:02:46;102930.00;;;14.93;83.43
21111;BME280;10713;51.912;4.494;2023-05-03T06:05:11;102924.19;;;14.77;75.94
21111;BME280;10713;51.912;4.494;2023-05-03T06:07:37;102916.75;;;14.54;73.81
21111;BME280;10713;51.912;4.494;2023-05-03T06:10:03;102910.19;;;14.69;72.76
21111;BME280;10713;51.912;4.494;2023-05-03T06:12:29;102926.53;;;14.50;69.60
21111;BME280;10713;51.912;4.494;2023-05-03T06:14:54;102915.38;;;14.75;68.78
21111;BME280;10713;51.912;4.494;2023-05-03T06:17:20;102916.78;;;14.90;67.12
21111;BME280;10713;51.912;4.494;2023-05-03T06:19:47;102914.22;;;15.21;67.79
21111;BME280;10713;51.912;4.494;2023-05-03T06:22:16;102918.31;;;15.34;65.94
21111;BME280;10713;51.912;4.494;2023-05-03T06:24:42;102926.38;;;15.31;64.13
21111;BME280;10713;51.912;4.494;2023-05-03T06:27:07;102922.81;;;14.96;63.10
21111;BME280;10713;51.912;4.494;2023-05-03T06:29:32;102921.56;;;14.75;62.85
21111;BME280;10713;51.912;4.494;2023-05-03T06:31:58;102918.88;;;14.77;62.95
21111;BME280;10713;51.912;4.494;2023-05-03T06:34:24;102923.03;;;14.87;62.45
21111;BME280;10713;51.912;4.494;2023-05-03T06:36:49;102911.53;;;15.22;62.57
21111;BME280;10713;51.912;4.494;2023-05-03T06:39:15;102916.03;;;15.19;60.77
21111;BME280;10713;51.912;4.494;2023-05-03T06:41:41;102915.22;;;14.81;59.51
21111;BME280;10713;51.912;4.494;2023-05-03T06:44:06;102913.69;;;14.30;58.71
21111;BME280;10713;51.912;4.494;2023-05-03T06:46:31;102924.78;;;14.09;59.87
21111;BME280;10713;51.912;4.494;2023-05-03T06:48:57;102920.59;;;13.97;61.40
21111;BME280;10713;51.912;4.494;2023-05-03T06:51:23;102909.38;;;13.83;61.93
21111;BME280;10713;51.912;4.494;2023-05-03T06:53:53;102908.66;;;13.74;62.90
21111;BME280;10713;51.912;4.494;2023-05-03T06:56:19;102911.50;;;14.07;62.03
21111;BME280;10713;51.912;4.494;2023-05-03T06:58:44;102908.63;;;14.19;61.61
21111;BME280;10713;51.912;4.494;2023-05-03T07:01:09;102897.00;;;14.64;62.09
21111;BME280;10713;51.912;4.494;2023-05-03T07:03:36;102905.91;;;14.99;61.65
21111;BME280;10713;51.912;4.494;2023-05-03T07:06:02;102905.63;;;15.09;60.59
21111;BME280;10713;51.912;4.494;2023-05-03T07:08:28;102887.09;;;15.41;60.48
21111;BME280;10713;51.912;4.494;2023-05-03T07:10:53;102884.09;;;15.53;59.84
21111;BME280;10713;51.912;4.494;2023-05-03T07:13:19;102881.81;;;15.72;59.71
21111;BME280;10713;51.912;4.494;2023-05-03T07:15:44;102878.38;;;15.67;58.22
21111;BME280;10713;51.912;4.494;2023-05-03T07:18:10;102877.19;;;15.79;58.11
21111;BME280;10713;51.912;4.494;2023-05-03T07:20:35;102877.47;;;15.69;58.13
21111;BME280;10713;51.912;4.494;2023-05-03T07:23:01;102871.28;;;15.98;57.59
21111;BME280;10713;51.912;4.494;2023-05-03T07:25:26;102869.38;;;16.02;57.90
21111;BME280;10713;51.912;4.494;2023-05-03T07:27:52;102862.06;;;15.79;58.01
21111;BME280;10713;51.912;4.494;2023-05-03T07:30:17;102870.91;;;15.16;57.27
21111;BME280;10713;51.912;4.494;2023-05-03T07:32:43;102862.28;;;15.39;58.57
21111;BME280;10713;51.912;4.494;2023-05-03T07:35:08;102859.81;;;15.65;58.79
21111;BME280;10713;51.912;4.494;2023-05-03T07:37:34;102863.34;;;15.66;58.33
21111;BME280;10713;51.912;4.494;2023-05-03T07:39:59;102868.78;;;15.61;56.52
21111;BME280;10713;51.912;4.494;2023-05-03T07:42:25;102857.50;;;15.19;56.55
21111;BME280;10713;51.912;4.494;2023-05-03T07:44:51;102816.03;;;15.12;57.71
21111;BME280;10713;51.912;4.494;2023-05-03T07:47:16;102848.00;;;15.10;57.35
21111;BME280;10713;51.912;4.494;2023-05-03T07:49:42;102857.75;;;15.11;56.60
21111;BME280;10713;51.912;4.494;2023-05-03T07:52:07;102861.56;;;14.99;56.33
21111;BME280;10713;51.912;4.494;2023-05-03T07:54:32;102862.41;;;15.01;56.10
21111;BME280;10713;51.912;4.494;2023-05-03T07:56:58;102864.28;;;15.30;56.37
21111;BME280;10713;51.912;4.494;2023-05-03T07:59:23;102871.53;;;15.58;55.26
21111;BME280;10713;51.912;4.494;2023-05-03T08:01:48;102869.38;;;15.40;55.38
21111;BME280;10713;51.912;4.494;2023-05-03T08:04:14;102878.69;;;15.23;54.46
21111;BME280;10713;51.912;4.494;2023-05-03T08:06:39;102877.50;;;15.66;54.56
21111;BME280;10713;51.912;4.494;2023-05-03T08:09:06;102860.03;;;15.56;54.16
21111;BME280;10713;51.912;4.494;2023-05-03T08:11:32;102866.88;;;15.33;53.52
21111;BME280;10713;51.912;4.494;2023-05-03T08:13:58;102865.66;;;15.13;53.87
21111;BME280;10713;51.912;4.494;2023-05-03T08:16:23;102854.09;;;15.14;54.03
21111;BME280;10713;51.912;4.494;2023-05-03T08:18:49;102870.31;;;15.04;54.43
21111;BME280;10713;51.912;4.494;2023-05-03T08:21:14;102864.97;;;15.04;55.59
21111;BME280;10713;51.912;4.494;2023-05-03T08:23:41;102858.06;;;15.31;55.73
21111;BME280;10713;51.912;4.494;2023-05-03T08:26:07;102853.56;;;15.66;54.99
21111;BME280;10713;51.912;4.494;2023-05-03T08:28:34;102847.63;;;15.88;55.91
21111;BME280;10713;51.912;4.494;2023-05-03T08:30:59;102851.41;;;15.81;54.09
21111;BME280;10713;51.912;4.494;2023-05-03T08:33:27;102850.38;;;16.14;58.80
21111;BME280;10713;51.912;4.494;2023-05-03T08:35:52;102840.69;;;16.40;53.80
21111;BME280;10713;51.912;4.494;2023-05-03T08:38:17;102852.66;;;16.27;52.20
21111;BME280;10713;51.912;4.494;2023-05-03T08:40:43;102859.25;;;15.85;52.83
21111;BME280;10713;51.912;4.494;2023-05-03T08:43:12;102865.28;;;15.92;54.15
21111;BME280;10713;51.912;4.494;2023-05-03T08:45:39;102865.84;;;16.02;52.44
21111;BME280;10713;51.912;4.494;2023-05-03T08:48:05;102854.63;;;15.92;54.71
21111;BME280;10713;51.912;4.494;2023-05-03T08:50:31;102866.03;;;15.95;51.77
21111;BME280;10713;51.912;4.494;2023-05-03T08:52:58;102853.78;;;15.90;52.49
21111;BME280;10713;51.912;4.494;2023-05-03T08:55:23;102853.59;;;15.96;53.79
21111;BME280;10713;51.912;4.494;2023-05-03T08:57:48;102867.78;;;16.26;52.30
21111;BME280;10713;51.912;4.494;2023-05-03T09:00:14;102880.38;;;16.21;50.72
21111;BME280;10713;51.912;4.494;2023-05-03T09:02:40;102858.44;;;16.41;50.91
21111;BME280;10713;51.912;4.494;2023-05-03T09:07:59;102850.66;;;16.61;50.76
21111;BME280;10713;51.912;4.494;2023-05-03T09:10:24;102867.72;;;16.84;49.72
21111;BME280;10713;51.912;4.494;2023-05-03T09:12:57;102861.94;;;16.70;49.25
21111;BME280;10713;51.912;4.494;2023-05-03T09:15:22;102860.00;;;16.75;49.29
21111;BME280;10713;51.912;4.494;2023-05-03T09:18:07;102866.44;;;16.67;51.63
21111;BME280;10713;51.912;4.494;2023-05-03T09:20:37;102880.00;;;16.89;49.80
21111;BME280;10713;51.912;4.494;2023-05-03T09:23:03;102864.75;;;17.20;49.91
21111;BME280;10713;51.912;4.494;2023-05-03T09:25:41;102870.88;;;17.22;50.18
21111;BME280;10713;51.912;4.494;2023-05-03T09:28:07;102862.22;;;17.40;48.91
21111;BME280;10713;51.912;4.494;2023-05-03T09:30:33;102864.72;;;17.45;48.99
21111;BME280;10713;51.912;4.494;2023-05-03T09:32:58;102866.50;;;17.69;48.68
21111;BME280;10713;51.912;4.494;2023-05-03T09:35:24;102867.19;;;17.26;48.60
21111;BME280;10713;51.912;4.494;2023-05-03T09:37:49;102864.63;;;16.96;48.21
21111;BME280;10713;51.912;4.494;2023-05-03T09:40:15;102860.44;;;16.89;48.89
21111;BME280;10713;51.912;4.494;2023-05-03T09:43:08;102858.84;;;17.10;48.94
21111;BME280;10713;51.912;4.494;2023-05-03T09:45:35;102869.69;;;17.05;48.37
21111;BME280;10713;51.912;4.494;2023-05-03T09:48:02;102858.22;;;16.75;50.22
21111;BME280;10713;51.912;4.494;2023-05-03T09:50:30;102858.94;;;17.07;49.08
21111;BME280;10713;51.912;4.494;2023-05-03T09:53:01;102853.44;;;17.37;50.03
21111;BME280;10713;51.912;4.494;2023-05-03T09:55:31;102862.16;;;17.17;48.44
21111;BME280;10713;51.912;4.494;2023-05-03T09:57:57;102870.03;;;16.95;49.55
21111;BME280;10713;51.912;4.494;2023-05-03T10:00:23;102868.31;;;16.65;50.10
21111;BME280;10713;51.912;4.494;2023-05-03T10:02:50;102869.38;;;16.32;50.83
21111;BME280;10713;51.912;4.494;2023-05-03T10:05:20;102863.91;;;16.36;49.96
21111;BME280;10713;51.912;4.494;2023-05-03T10:07:49;102863.03;;;16.36;50.12
21111;BME280;10713;51.912;4.494;2023-05-03T10:10:16;102861.97;;;16.41;50.30
21111;BME280;10713;51.912;4.494;2023-05-03T10:12:43;102858.22;;;15.58;51.87
21111;BME280;10713;51.912;4.494;2023-05-03T10:15:09;102856.50;;;15.88;52.45
21111;BME280;10713;51.912;4.494;2023-05-03T10:17:38;102858.63;;;15.75;52.28
21111;BME280;10713;51.912;4.494;2023-05-03T10:25:28;102834.81;;;16.01;53.85
21111;BME280;10713;51.912;4.494;2023-05-03T10:28:03;102856.63;;;16.41;52.46
21111;BME280;10713;51.912;4.494;2023-05-03T10:30:33;102853.94;;;16.70;51.64
21111;BME280;10713;51.912;4.494;2023-05-03T10:35:52;102837.75;;;16.21;53.16
21111;BME280;10713;51.912;4.494;2023-05-03T10:38:25;102844.78;;;16.24;52.39
21111;BME280;10713;51.912;4.494;2023-05-03T10:40:52;102832.34;;;16.79;53.13
21111;BME280;10713;51.912;4.494;2023-05-03T10:45:56;102837.41;;;16.86;51.34
21111;BME280;10713;51.912;4.494;2023-05-03T10:48:22;102842.84;;;16.29;50.66
21111;BME280;10713;51.912;4.494;2023-05-03T10:50:48;102822.41;;;16.28;51.22
21111;BME280;10713;51.912;4.494;2023-05-03T10:56:04;102831.75;;;16.14;52.55
21111;BME280;10713;51.912;4.494;2023-05-03T10:58:37;102823.66;;;15.88;52.17
21111;BME280;10713;51.912;4.494;2023-05-03T11:01:08;102835.47;;;15.46;52.30
21111;BME280;10713;51.912;4.494;2023-05-03T11:08:55;102814.84;;;15.86;54.57
21111;BME280;10713;51.912;4.494;2023-05-03T11:11:21;102817.31;;;15.92;52.87
21111;BME280;10713;51.912;4.494;2023-05-03T11:13:46;102815.34;;;15.69;53.52
21111;BME280;10713;51.912;4.494;2023-05-03T11:16:12;102809.72;;;15.80;54.18
21111;BME280;10713;51.912;4.494;2023-05-03T11:18:37;102808.13;;;16.02;53.57
21111;BME280;10713;51.912;4.494;2023-05-03T11:21:03;102797.72;;;16.23;53.31
21111;BME280;10713;51.912;4.494;2023-05-03T11:23:28;102787.53;;;16.35;54.66
21111;BME280;10713;51.912;4.494;2023-05-03T11:25:54;102784.00;;;16.35;53.73
21111;BME280;10713;51.912;4.494;2023-05-03T11:28:22;102781.53;;;16.29;53.62
21111;BME280;10713;51.912;4.494;2023-05-03T11:30:47;102789.31;;;16.08;52.15
21111;BME280;10713;51.912;4.494;2023-05-03T11:33:13;102787.97;;;15.93;52.52
21111;BME280;10713;51.912;4.494;2023-05-03T11:35:38;102778.47;;;15.53;53.71
21111;BME280;10713;51.912;4.494;2023-05-03T11:38:04;102785.09;;;15.40;54.44
21111;BME280;10713;51.912;4.494;2023-05-03T11:40:30;102785.03;;;15.10;54.60
21111;BME280;10713;51.912;4.494;2023-05-03T11:42:59;102778.34;;;14.96;54.97
21111;BME280;10713;51.912;4.494;2023-05-03T11:45:27;102779.69;;;14.79;54.57
21111;BME280;10713;51.912;4.494;2023-05-03T11:47:54;102784.59;;;14.60;55.22
21111;BME280;10713;51.912;4.494;2023-05-03T11:53:10;102770.59;;;14.54;55.94
21111;BME280;10713;51.912;4.494;2023-05-03T11:55:38;102752.97;;;14.48;55.83
21111;BME280;10713;51.912;4.494;2023-05-03T11:58:03;102769.78;;;14.49;56.51
21111;BME280;10713;51.912;4.494;2023-05-03T12:00:29;102760.63;;;14.25;57.49
21111;BME280;10713;51.912;4.494;2023-05-03T12:02:57;102757.69;;;14.35;57.35
21111;BME280;10713;51.912;4.494;2023-05-03T12:05:23;102760.19;;;14.41;56.95
21111;BME280;10713;51.912;4.494;2023-05-03T12:07:48;102745.97;;;14.44;57.22
21111;BME280;10713;51.912;4.494;2023-05-03T12:10:17;102745.97;;;14.44;56.94
21111;BME280;10713;51.912;4.494;2023-05-03T12:12:57;102736.34;;;14.40;58.21
21111;BME280;10713;51.912;4.494;2023-05-03T12:15:31;102733.94;;;14.31;57.07
21111;BME280;10713;51.912;4.494;2023-05-03T12:18:02;102741.00;;;14.30;55.95
21111;BME280;10713;51.912;4.494;2023-05-03T12:20:29;102727.94;;;14.21;55.78
21111;BME280;10713;51.912;4.494;2023-05-03T12:23:00;102726.44;;;14.11;57.96
21111;BME280;10713;51.912;4.494;2023-05-03T12:25:30;102721.38;;;14.00;56.08
21111;BME280;10713;51.912;4.494;2023-05-03T12:27:56;102719.13;;;13.82;57.58
21111;BME280;10713;51.912;4.494;2023-05-03T12:30:22;102717.44;;;13.79;58.08
21111;BME280;10713;51.912;4.494;2023-05-03T12:32:48;102720.78;;;13.87;60.18
21111;BME280;10713;51.912;4.494;2023-05-03T12:35:14;102698.97;;;14.12;66.15
21111;BME280;10713;51.912;4.494;2023-05-03T12:37:40;102707.16;;;14.03;61.89
21111;BME280;10713;51.912;4.494;2023-05-03T12:40:06;102703.09;;;13.88;62.62
21111;BME280;10713;51.912;4.494;2023-05-03T12:42:31;102710.22;;;13.86;63.07
21111;BME280;10713;51.912;4.494;2023-05-03T12:45:00;102700.69;;;13.77;63.14
21111;BME280;10713;51.912;4.494;2023-05-03T12:47:26;102703.34;;;13.77;63.57
21111;BME280;10713;51.912;4.494;2023-05-03T12:49:52;102698.34;;;13.63;65.53
21111;BME280;10713;51.912;4.494;2023-05-03T12:52:19;102686.94;;;13.60;66.53
21111;BME280;10713;51.912;4.494;2023-05-03T12:54:46;102697.16;;;13.77;67.02
21111;BME280;10713;51.912;4.494;2023-05-03T12:57:11;102680.88;;;13.90;66.57
21111;BME280;10713;51.912;4.494;2023-05-03T12:59:38;102677.81;;;14.09;69.03
21111;BME280;10713;51.912;4.494;2023-05-03T13:02:05;102671.50;;;14.13;67.12
21111;BME280;10713;51.912;4.494;2023-05-03T13:04:31;102691.94;;;14.09;65.50
21111;BME280;10713;51.912;4.494;2023-05-03T13:06:57;102682.56;;;13.94;64.26
21111;BME280;10713;51.912;4.494;2023-05-03T13:09:22;102672.19;;;13.85;66.27
21111;BME280;10713;51.912;4.494;2023-05-03T13:11:48;102674.25;;;13.72;63.90
21111;BME280;10713;51.912;4.494;2023-05-03T13:14:16;102664.69;;;13.65;63.94